sensor_id;sensor_type;location;lat;lon;timestamp;pressure;altitude;pressure_sealevel;temperature;humidity
41690;BME280;27372;42.658;23.256;2023-08-31T00:00:42;93322.84;;;19.25;65.60
41690;BME280;27372;42.658;23.256;2023-08-31T00:03:08;93324.19;;;19.36;66.53
41690;BME280;27372;42.658;23.256;2023-08-31T00:05:42;93324.69;;;19.02;65.95
41690;BME280;27372;42.658;23.256;2023-08-31T00:08:08;93327.25;;;18.93;65.53
41690;BME280;27372;42.658;23.256;2023-08-31T00:10:34;93322.84;;;18.74;67.11
41690;BME280;27372;42.658;23.256;2023-08-31T00:13:01;93326.09;;;18.71;66.64
41690;BME280;27372;42.658;23.256;2023-08-31T00:15:26;93340.75;;;18.83;66.10
41690;BME280;27372;42.658;23.256;2023-08-31T00:17:53;93327.84;;;18.90;65.53
41690;BME280;27372;42.658;23.256;2023-08-31T00:20:19;93318.59;;;19.01;66.45
41690;BME280;27372;42.658;23.256;2023-08-31T00:22:44;93319.94;;;19.13;64.22
41690;BME280;27372;42.658;23.256;2023-08-31T00:25:09;93317.38;;;19.07;65.14
41690;BME280;27372;42.658;23.256;2023-08-31T00:27:37;93316.47;;;19.12;65.74
41690;BME280;27372;42.658;23.256;2023-08-31T00:30:07;93331.53;;;19.17;64.57
41690;BME280;27372;42.658;23.256;2023-08-31T00:32:45;93340.13;;;19.14;65.03
41690;BME280;27372;42.658;23.256;2023-08-31T00:35:12;93338.19;;;19.05;64.57
41690;BME280;27372;42.658;23.256;2023-08-31T00:37:38;93331.59;;;19.03;65.02
41690;BME280;27372;42.658;23.256;2023-08-31T00:40:12;93343.41;;;19.11;66.01
41690;BME280;27372;42.658;23.256;2023-08-31T00:42:39;93340.16;;;19.36;65.53
41690;BME280;27372;42.658;23.256;2023-08-31T00:45:18;93336.59;;;19.41;65.06
41690;BME280;27372;42.658;23.256;2023-08-31T00:47:48;93335.38;;;19.47;65.07
41690;BME280;27372;42.658;23.256;2023-08-31T00:50:15;93334.75;;;19.50;64.09
41690;BME280;27372;42.658;23.256;2023-08-31T00:52:42;93329.63;;;19.54;66.24
41690;BME280;27372;42.658;23.256;2023-08-31T00:55:09;93347.06;;;19.83;64.26
41690;BME280;27372;42.658;23.256;2023-08-31T00:57:37;93349.41;;;20.07;65.59
41690;BME280;27372;42.658;23.256;2023-08-31T01:00:04;93341.63;;;19.88;63.63
41690;BME280;27372;42.658;23.256;2023-08-31T01:02:43;93343.16;;;19.44;64.66
41690;BME280;27372;42.658;23.256;2023-08-31T01:13:44;93343.72;;;19.32;65.52
41690;BME280;27372;42.658;23.256;2023-08-31T01:16:15;93347.06;;;19.60;67.24
41690;BME280;27372;42.658;23.256;2023-08-31T01:18:41;93347.66;;;19.57;65.55
41690;BME280;27372;42.658;23.256;2023-08-31T01:21:21;93353.78;;;18.98;66.08
41690;BME280;27372;42.658;23.256;2023-08-31T01:26:19;93349.03;;;19.32;66.07
41690;BME280;27372;42.658;23.256;2023-08-31T01:28:45;93348.94;;;19.60;68.97
41690;BME280;27372;42.658;23.256;2023-08-31T01:31:11;93342.81;;;19.59;64.74
41690;BME280;27372;42.658;23.256;2023-08-31T01:36:47;93350.16;;;19.99;62.78
41690;BME280;27372;42.658;23.256;2023-08-31T01:39:20;93352.41;;;20.14;63.51
41690;BME280;27372;42.658;23.256;2023-08-31T01:42:01;93343.94;;;20.12;63.64
41690;BME280;27372;42.658;23.256;2023-08-31T01:44:30;93338.97;;;19.88;60.62
41690;BME280;27372;42.658;23.256;2023-08-31T01:47:03;93333.63;;;19.88;61.81
41690;BME280;27372;42.658;23.256;2023-08-31T01:49:36;93343.00;;;20.17;62.10
41690;BME280;27372;42.658;23.256;2023-08-31T01:52:04;93348.31;;;20.08;62.77
41690;BME280;27372;42.658;23.256;2023-08-31T01:54:30;93349.50;;;19.93;63.58
41690;BME280;27372;42.658;23.256;2023-08-31T01:56:56;93349.31;;;19.07;65.83
41690;BME280;27372;42.658;23.256;2023-08-31T01:59:21;93352.19;;;18.83;67.10
41690;BME280;27372;42.658;23.256;2023-08-31T02:01:47;93361.94;;;18.88;69.18
41690;BME280;27372;42.658;23.256;2023-08-31T02:04:12;93351.25;;;19.16;70.92
41690;BME280;27372;42.658;23.256;2023-08-31T02:06:38;93354.09;;;19.19;68.99
41690;BME280;27372;42.658;23.256;2023-08-31T02:09:03;93363.03;;;18.59;67.54
41690;BME280;27372;42.658;23.256;2023-08-31T02:11:29;93376.91;;;18.28;69.10
41690;BME280;27372;42.658;23.256;2023-08-31T02:13:56;93378.16;;;17.83;70.83
41690;BME280;27372;42.658;23.256;2023-08-31T02:16:22;93370.00;;;17.80;70.67
41690;BME280;27372;42.658;23.256;2023-08-31T02:18:47;93388.13;;;17.92;70.84
41690;BME280;27372;42.658;23.256;2023-08-31T02:21:12;93357.59;;;18.08;72.64
41690;BME280;27372;42.658;23.256;2023-08-31T02:23:38;93375.22;;;18.32;70.43
41690;BME280;27372;42.658;23.256;2023-08-31T02:26:03;93370.03;;;18.27;69.61
41690;BME280;27372;42.658;23.256;2023-08-31T02:28:29;93366.06;;;18.10;69.80
41690;BME280;27372;42.658;23.256;2023-08-31T02:31:03;93354.84;;;18.13;69.65
41690;BME280;27372;42.658;23.256;2023-08-31T02:33:29;93354.84;;;18.13;70.33
41690;BME280;27372;42.658;23.256;2023-08-31T02:35:55;93357.81;;;18.54;71.14
41690;BME280;27372;42.658;23.256;2023-08-31T02:38:21;93349.13;;;18.90;68.81
41690;BME280;27372;42.658;23.256;2023-08-31T02:40:47;93348.72;;;19.11;67.31
41690;BME280;27372;42.658;23.256;2023-08-31T02:43:13;93353.31;;;19.19;69.78
41690;BME280;27372;42.658;23.256;2023-08-31T02:45:39;93352.28;;;19.29;68.23
41690;BME280;27372;42.658;23.256;2023-08-31T02:48:09;93354.25;;;19.37;67.42
41690;BME280;27372;42.658;23.256;2023-08-31T02:50:35;93362.47;;;19.49;68.31
41690;BME280;27372;42.658;23.256;2023-08-31T02:53:01;93359.41;;;19.56;69.33
41690;BME280;27372;42.658;23.256;2023-08-31T02:55:26;93366.19;;;19.62;67.01
41690;BME280;27372;42.658;23.256;2023-08-31T02:57:52;93387.13;;;19.55;68.13
41690;BME280;27372;42.658;23.256;2023-08-31T03:00:17;93385.03;;;19.66;68.08
41690;BME280;27372;42.658;23.256;2023-08-31T03:02:47;93388.28;;;19.26;66.17
41690;BME280;27372;42.658;23.256;2023-08-31T03:05:13;93399.09;;;19.44;67.83
41690;BME280;27372;42.658;23.256;2023-08-31T03:07:38;93394.25;;;19.46;68.03
41690;BME280;27372;42.658;23.256;2023-08-31T03:10:04;93397.59;;;18.59;67.55
41690;BME280;27372;42.658;23.256;2023-08-31T03:12:30;93389.63;;;18.45;68.15
41690;BME280;27372;42.658;23.256;2023-08-31T03:14:55;93394.94;;;18.87;69.08
41690;BME280;27372;42.658;23.256;2023-08-31T03:17:20;93393.34;;;19.14;70.87
41690;BME280;27372;42.658;23.256;2023-08-31T03:19:46;93390.81;;;19.45;69.66
41690;BME280;27372;42.658;23.256;2023-08-31T03:22:11;93392.81;;;19.62;66.60
41690;BME280;27372;42.658;23.256;2023-08-31T03:24:36;93387.72;;;19.75;65.65
41690;BME280;27372;42.658;23.256;2023-08-31T03:27:05;93397.69;;;19.83;66.13
41690;BME280;27372;42.658;23.256;2023-08-31T03:29:30;93385.25;;;19.55;64.91
41690;BME280;27372;42.658;23.256;2023-08-31T03:31:57;93386.97;;;19.37;66.25
41690;BME280;27372;42.658;23.256;2023-08-31T03:34:30;93390.47;;;19.24;66.56
41690;BME280;27372;42.658;23.256;2023-08-31T03:36:58;93393.47;;;18.53;66.79
41690;BME280;27372;42.658;23.256;2023-08-31T03:39:26;93398.31;;;18.65;68.10
41690;BME280;27372;42.658;23.256;2023-08-31T03:41:52;93395.72;;;18.45;68.46
41690;BME280;27372;42.658;23.256;2023-08-31T03:44:23;93395.03;;;18.40;68.23
41690;BME280;27372;42.658;23.256;2023-08-31T03:46:49;93392.13;;;18.08;67.83
41690;BME280;27372;42.658;23.256;2023-08-31T03:49:14;93399.84;;;18.24;67.32
41690;BME280;27372;42.658;23.256;2023-08-31T03:51:43;93399.38;;;18.36;65.49
41690;BME280;27372;42.658;23.256;2023-08-31T03:54:08;93403.19;;;18.29;65.76
41690;BME280;27372;42.658;23.256;2023-08-31T03:56:34;93408.06;;;18.69;65.68
41690;BME280;27372;42.658;23.256;2023-08-31T03:59:02;93404.69;;;19.05;68.88
41690;BME280;27372;42.658;23.256;2023-08-31T04:01:29;93407.41;;;19.28;68.36
41690;BME280;27372;42.658;23.256;2023-08-31T04:03:54;93420.59;;;19.47;65.86
41690;BME280;27372;42.658;23.256;2023-08-31T04:06:19;93434.44;;;19.58;63.89
41690;BME280;27372;42.658;23.256;2023-08-31T04:08:45;93448.63;;;19.67;67.06
41690;BME280;27372;42.658;23.256;2023-08-31T04:11:10;93457.19;;;19.78;64.64
41690;BME280;27372;42.658;23.256;2023-08-31T04:13:36;93454.84;;;19.99;65.59
41690;BME280;27372;42.658;23.256;2023-08-31T04:16:01;93454.78;;;20.13;64.00
41690;BME280;27372;42.658;23.256;2023-08-31T04:18:29;93458.28;;;20.23;64.71
41690;BME280;27372;42.658;23.256;2023-08-31T04:20:55;93453.22;;;19.39;63.12
41690;BME280;27372;42.658;23.256;2023-08-31T04:23:21;93454.63;;;19.36;66.36
41690;BME280;27372;42.658;23.256;2023-08-31T04:25:47;93467.66;;;19.38;64.74
41690;BME280;27372;42.658;23.256;2023-08-31T04:28:15;93473.38;;;18.42;67.19
41690;BME280;27372;42.658;23.256;2023-08-31T04:30:44;93471.66;;;18.52;68.23
41690;BME280;27372;42.658;23.256;2023-08-31T04:33:09;93481.88;;;18.58;68.52
41690;BME280;27372;42.658;23.256;2023-08-31T04:35:35;93470.28;;;18.54;68.99
41690;BME280;27372;42.658;23.256;2023-08-31T04:38:03;93484.50;;;18.77;68.26
41690;BME280;27372;42.658;23.256;2023-08-31T04:40:29;93472.06;;;18.59;69.08
41690;BME280;27372;42.658;23.256;2023-08-31T04:42:55;93476.34;;;18.41;70.02
41690;BME280;27372;42.658;23.256;2023-08-31T04:45:20;93478.25;;;18.54;69.89
41690;BME280;27372;42.658;23.256;2023-08-31T04:47:46;93482.50;;;18.55;70.11
41690;BME280;27372;42.658;23.256;2023-08-31T04:52:58;93490.50;;;18.83;69.54
41690;BME280;27372;42.658;23.256;2023-08-31T04:55:23;93477.03;;;19.07;68.99
41690;BME280;27372;42.658;23.256;2023-08-31T04:57:50;93474.34;;;19.35;67.87
41690;BME280;27372;42.658;23.256;2023-08-31T05:00:26;93473.88;;;19.70;65.88
41690;BME280;27372;42.658;23.256;2023-08-31T05:02:51;93481.59;;;19.94;65.16
41690;BME280;27372;42.658;23.256;2023-08-31T05:05:17;93486.06;;;19.99;65.09
41690;BME280;27372;42.658;23.256;2023-08-31T05:07:45;93494.28;;;20.11;64.95
41690;BME280;27372;42.658;23.256;2023-08-31T05:10:10;93499.78;;;20.38;64.15
41690;BME280;27372;42.658;23.256;2023-08-31T05:12:36;93496.94;;;20.11;65.16
41690;BME280;27372;42.658;23.256;2023-08-31T05:15:02;93496.03;;;20.16;64.63
41690;BME280;27372;42.658;23.256;2023-08-31T05:17:28;93500.25;;;19.94;64.97
41690;BME280;27372;42.658;23.256;2023-08-31T05:19:53;93503.44;;;20.19;64.31
41690;BME280;27372;42.658;23.256;2023-08-31T05:22:19;93489.69;;;20.48;62.86
41690;BME280;27372;42.658;23.256;2023-08-31T05:24:44;93496.19;;;20.65;62.29
41690;BME280;27372;42.658;23.256;2023-08-31T05:27:10;93493.00;;;20.54;63.05
41690;BME280;27372;42.658;23.256;2023-08-31T05:29:35;93480.66;;;20.67;62.04
41690;BME280;27372;42.658;23.256;2023-08-31T05:32:01;93500.53;;;20.84;61.90
41690;BME280;27372;42.658;23.256;2023-08-31T05:34:27;93490.06;;;20.96;61.27
41690;BME280;27372;42.658;23.256;2023-08-31T05:36:52;93488.84;;;21.02;60.88
41690;BME280;27372;42.658;23.256;2023-08-31T05:39:24;93480.72;;;22.00;62.99
41690;BME280;27372;42.658;23.256;2023-08-31T05:41:50;93491.97;;;22.59;60.30
41690;BME280;27372;42.658;23.256;2023-08-31T05:44:16;93487.53;;;23.10;59.05
41690;BME280;27372;42.658;23.256;2023-08-31T05:46:42;93487.88;;;23.99;54.68
41690;BME280;27372;42.658;23.256;2023-08-31T05:49:07;93488.91;;;24.61;53.09
41690;BME280;27372;42.658;23.256;2023-08-31T05:51:33;93477.44;;;24.98;52.23
41690;BME280;27372;42.658;23.256;2023-08-31T05:53:58;93482.72;;;25.44;50.65
41690;BME280;27372;42.658;23.256;2023-08-31T05:56:23;93486.22;;;25.57;48.98
41690;BME280;27372;42.658;23.256;2023-08-31T05:58:49;93486.53;;;25.68;48.92
41690;BME280;27372;42.658;23.256;2023-08-31T06:01:15;93493.47;;;25.81;48.16
41690;BME280;27372;42.658;23.256;2023-08-31T06:03:41;93495.19;;;26.02;48.22
41690;BME280;27372;42.658;23.256;2023-08-31T06:06:06;93497.53;;;26.16;47.67
41690;BME280;27372;42.658;23.256;2023-08-31T06:08:32;93501.41;;;26.31;47.48
41690;BME280;27372;42.658;23.256;2023-08-31T06:10:57;93499.78;;;26.42;46.75
41690;BME280;27372;42.658;23.256;2023-08-31T06:13:23;93503.03;;;26.48;45.90
41690;BME280;27372;42.658;23.256;2023-08-31T06:15:49;93509.06;;;26.73;44.18
41690;BME280;27372;42.658;23.256;2023-08-31T06:18:14;93511.53;;;26.78;45.18
41690;BME280;27372;42.658;23.256;2023-08-31T06:20:40;93514.22;;;26.78;45.17
41690;BME280;27372;42.658;23.256;2023-08-31T06:23:05;93509.38;;;26.84;44.43
41690;BME280;27372;42.658;23.256;2023-08-31T06:25:31;93516.44;;;26.76;44.88
41690;BME280;27372;42.658;23.256;2023-08-31T06:27:57;93533.53;;;26.68;43.25
41690;BME280;27372;42.658;23.256;2023-08-31T06:30:23;93525.22;;;26.73;44.04
41690;BME280;27372;42.658;23.256;2023-08-31T06:32:49;93525.53;;;27.00;42.28
41690;BME280;27372;42.658;23.256;2023-08-31T06:35:18;93540.19;;;26.87;42.32
41690;BME280;27372;42.658;23.256;2023-08-31T06:37:44;93535.09;;;26.97;41.13
41690;BME280;27372;42.658;23.256;2023-08-31T06:40:12;93542.59;;;26.76;40.95
41690;BME280;27372;42.658;23.256;2023-08-31T06:42:40;93549.50;;;26.61;42.00
41690;BME280;27372;42.658;23.256;2023-08-31T06:45:07;93541.63;;;26.68;41.54
41690;BME280;27372;42.658;23.256;2023-08-31T06:47:33;93540.13;;;26.55;41.23
41690;BME280;27372;42.658;23.256;2023-08-31T06:49:59;93544.03;;;26.86;41.83
41690;BME280;27372;42.658;23.256;2023-08-31T06:52:25;93544.13;;;26.89;41.59
41690;BME280;27372;42.658;23.256;2023-08-31T06:54:51;93545.88;;;26.97;40.97
41690;BME280;27372;42.658;23.256;2023-08-31T06:57:23;93540.59;;;27.17;40.71
41690;BME280;27372;42.658;23.256;2023-08-31T06:59:48;93548.06;;;27.24;40.69
41690;BME280;27372;42.658;23.256;2023-08-31T07:02:14;93546.91;;;26.64;41.07
41690;BME280;27372;42.658;23.256;2023-08-31T07:04:40;93551.28;;;26.97;40.71
41690;BME280;27372;42.658;23.256;2023-08-31T07:07:06;93553.53;;;25.02;42.66
41690;BME280;27372;42.658;23.256;2023-08-31T07:09:38;93545.94;;;25.04;43.22
41690;BME280;27372;42.658;23.256;2023-08-31T07:12:03;93555.84;;;24.79;43.12
41690;BME280;27372;42.658;23.256;2023-08-31T07:14:29;93552.84;;;24.38;43.09
41690;BME280;27372;42.658;23.256;2023-08-31T07:16:54;93544.13;;;23.48;44.07
41690;BME280;27372;42.658;23.256;2023-08-31T07:19:19;93561.00;;;23.48;45.27
41690;BME280;27372;42.658;23.256;2023-08-31T07:21:45;93556.19;;;23.33;45.71
41690;BME280;27372;42.658;23.256;2023-08-31T07:24:12;93567.56;;;23.21;46.03
41690;BME280;27372;42.658;23.256;2023-08-31T07:26:38;93562.38;;;23.24;45.83
41690;BME280;27372;42.658;23.256;2023-08-31T07:29:03;93560.50;;;23.55;46.28
41690;BME280;27372;42.658;23.256;2023-08-31T07:31:30;93572.41;;;23.66;45.12
41690;BME280;27372;42.658;23.256;2023-08-31T07:33:57;93573.13;;;23.54;45.88
41690;BME280;27372;42.658;23.256;2023-08-31T07:36:22;93556.22;;;23.24;45.83
41690;BME280;27372;42.658;23.256;2023-08-31T07:38:47;93563.31;;;23.11;46.83
41690;BME280;27372;42.658;23.256;2023-08-31T07:41:13;93559.53;;;23.21;45.91
41690;BME280;27372;42.658;23.256;2023-08-31T07:43:38;93582.47;;;22.74;47.33
41690;BME280;27372;42.658;23.256;2023-08-31T07:46:04;93568.47;;;22.77;47.73
41690;BME280;27372;42.658;23.256;2023-08-31T07:48:29;93566.69;;;22.82;47.86
41690;BME280;27372;42.658;23.256;2023-08-31T07:50:55;93573.66;;;22.65;48.31
41690;BME280;27372;42.658;23.256;2023-08-31T07:53:20;93579.94;;;22.87;47.74
41690;BME280;27372;42.658;23.256;2023-08-31T07:55:55;93571.22;;;23.07;47.81
41690;BME280;27372;42.658;23.256;2023-08-31T07:58:24;93590.25;;;23.15;45.79
41690;BME280;27372;42.658;23.256;2023-08-31T08:00:57;93567.72;;;23.24;46.63
41690;BME280;27372;42.658;23.256;2023-08-31T08:03:23;93580.06;;;23.47;46.57
41690;BME280;27372;42.658;23.256;2023-08-31T08:05:49;93582.28;;;23.75;45.37
41690;BME280;27372;42.658;23.256;2023-08-31T08:08:14;93598.78;;;23.55;45.30
41690;BME280;27372;42.658;23.256;2023-08-31T08:10:40;93607.34;;;23.49;45.93
41690;BME280;27372;42.658;23.256;2023-08-31T08:13:05;93569.25;;;23.64;44.24
41690;BME280;27372;42.658;23.256;2023-08-31T08:15:31;93575.31;;;24.33;42.65
41690;BME280;27372;42.658;23.256;2023-08-31T08:17:57;93578.50;;;24.48;42.32
41690;BME280;27372;42.658;23.256;2023-08-31T08:20:23;93578.09;;;23.35;44.17
41690;BME280;27372;42.658;23.256;2023-08-31T08:22:49;93576.31;;;23.39;42.77
41690;BME280;27372;42.658;23.256;2023-08-31T08:25:18;93579.88;;;23.82;43.54
41690;BME280;27372;42.658;23.256;2023-08-31T08:27:44;93578.84;;;24.25;42.62
41690;BME280;27372;42.658;23.256;2023-08-31T08:30:09;93575.75;;;24.78;41.42
41690;BME280;27372;42.658;23.256;2023-08-31T08:32:35;93570.66;;;24.98;41.04
41690;BME280;27372;42.658;23.256;2023-08-31T08:35:00;93563.50;;;25.02;39.92
41690;BME280;27372;42.658;23.256;2023-08-31T08:37:26;93575.94;;;25.06;40.61
41690;BME280;27372;42.658;23.256;2023-08-31T08:39:54;93580.63;;;25.09;38.90
41690;BME280;27372;42.658;23.256;2023-08-31T08:42:20;93581.44;;;25.10;39.24
41690;BME280;27372;42.658;23.256;2023-08-31T08:44:49;93598.84;;;25.50;37.86
41690;BME280;27372;42.658;23.256;2023-08-31T08:47:15;93566.63;;;25.74;38.42
41690;BME280;27372;42.658;23.256;2023-08-31T08:49:42;93580.47;;;26.01;35.67
41690;BME280;27372;42.658;23.256;2023-08-31T08:52:09;93567.31;;;26.37;35.81
41690;BME280;27372;42.658;23.256;2023-08-31T08:54:35;93576.66;;;26.02;36.12
41690;BME280;27372;42.658;23.256;2023-08-31T08:57:04;93601.13;;;25.72;35.40
41690;BME280;27372;42.658;23.256;2023-08-31T08:59:32;93573.09;;;25.86;35.42
41690;BME280;27372;42.658;23.256;2023-08-31T09:02:01;93568.59;;;26.15;34.95
41690;BME280;27372;42.658;23.256;2023-08-31T09:04:29;93572.94;;;26.32;35.36
41690;BME280;27372;42.658;23.256;2023-08-31T09:06:55;93564.97;;;26.35;35.35
41690;BME280;27372;42.658;23.256;2023-08-31T09:09:23;93568.50;;;27.25;33.89
41690;BME280;27372;42.658;23.256;2023-08-31T09:11:49;93571.34;;;27.00;33.28
41690;BME280;27372;42.658;23.256;2023-08-31T09:14:19;93572.44;;;26.83;34.10
41690;BME280;27372;42.658;23.256;2023-08-31T09:16:46;93585.88;;;26.55;34.12
41690;BME280;27372;42.658;23.256;2023-08-31T09:19:22;93566.50;;;26.77;34.61
41690;BME280;27372;42.658;23.256;2023-08-31T09:21:49;93578.72;;;26.46;34.78
41690;BME280;27372;42.658;23.256;2023-08-31T09:24:15;93586.13;;;27.06;34.38
41690;BME280;27372;42.658;23.256;2023-08-31T09:26:48;93587.00;;;26.54;35.65
41690;BME280;27372;42.658;23.256;2023-08-31T09:29:14;93583.50;;;26.94;34.58
41690;BME280;27372;42.658;23.256;2023-08-31T09:31:46;93571.09;;;27.05;34.36
41690;BME280;27372;42.658;23.256;2023-08-31T09:34:15;93580.47;;;27.11;33.38
41690;BME280;27372;42.658;23.256;2023-08-31T09:36:41;93584.09;;;27.48;33.60
41690;BME280;27372;42.658;23.256;2023-08-31T09:39:08;93597.09;;;27.94;32.74
41690;BME280;27372;42.658;23.256;2023-08-31T09:41:34;93571.41;;;27.48;33.00
41690;BME280;27372;42.658;23.256;2023-08-31T09:44:16;93552.00;;;27.74;33.93
41690;BME280;27372;42.658;23.256;2023-08-31T09:46:45;93569.91;;;27.51;33.31
41690;BME280;27372;42.658;23.256;2023-08-31T09:49:14;93577.97;;;27.99;32.40
41690;BME280;27372;42.658;23.256;2023-08-31T09:51:43;93562.69;;;26.78;33.40
41690;BME280;27372;42.658;23.256;2023-08-31T09:54:13;93557.31;;;26.66;33.93
41690;BME280;27372;42.658;23.256;2023-08-31T09:56:43;93576.53;;;26.93;34.18
41690;BME280;27372;42.658;23.256;2023-08-31T09:59:09;93572.53;;;27.63;35.80
41690;BME280;27372;42.658;23.256;2023-08-31T10:01:35;93567.59;;;28.01;33.00
41690;BME280;27372;42.658;23.256;2023-08-31T10:04:09;93582.03;;;28.09;34.78
41690;BME280;27372;42.658;23.256;2023-08-31T10:06:40;93564.59;;;27.54;32.86
41690;BME280;27372;42.658;23.256;2023-08-31T10:09:09;93566.88;;;28.20;31.22
41690;BME280;27372;42.658;23.256;2023-08-31T10:11:43;93564.63;;;28.61;30.80
41690;BME280;27372;42.658;23.256;2023-08-31T10:14:13;93574.16;;;28.94;30.20
41690;BME280;27372;42.658;23.256;2023-08-31T10:16:44;93566.28;;;29.79;28.45
41690;BME280;27372;42.658;23.256;2023-08-31T10:19:09;93563.72;;;29.63;28.15
41690;BME280;27372;42.658;23.256;2023-08-31T10:21:35;93572.19;;;28.00;29.98
41690;BME280;27372;42.658;23.256;2023-08-31T10:24:00;93559.63;;;27.40;31.32
41690;BME280;27372;42.658;23.256;2023-08-31T10:26:28;93557.16;;;27.99;34.52
41690;BME280;27372;42.658;23.256;2023-08-31T10:28:54;93560.50;;;28.28;32.85
41690;BME280;27372;42.658;23.256;2023-08-31T10:31:20;93575.19;;;27.15;33.67
41690;BME280;27372;42.658;23.256;2023-08-31T10:34:06;93573.47;;;27.39;33.08
41690;BME280;27372;42.658;23.256;2023-08-31T10:36:40;93570.69;;;27.35;31.21
41690;BME280;27372;42.658;23.256;2023-08-31T10:39:16;93561.75;;;26.87;32.83
41690;BME280;27372;42.658;23.256;2023-08-31T10:41:42;93572.28;;;26.35;33.39
41690;BME280;27372;42.658;23.256;2023-08-31T10:44:37;93589.47;;;27.48;30.73
41690;BME280;27372;42.658;23.256;2023-08-31T10:47:14;93579.19;;;28.57;30.34
41690;BME280;27372;42.658;23.256;2023-08-31T10:49:50;93576.31;;;29.08;29.61
41690;BME280;27372;42.658;23.256;2023-08-31T10:52:19;93580.03;;;28.22;30.81
41690;BME280;27372;42.658;23.256;2023-08-31T10:54:55;93574.53;;;29.16;29.31
41690;BME280;27372;42.658;23.256;2023-08-31T10:57:29;93567.25;;;29.90;28.43
41690;BME280;27372;42.658;23.256;2023-08-31T10:59:55;93568.06;;;29.21;30.28
41690;BME280;27372;42.658;23.256;2023-08-31T11:02:43;93572.78;;;29.47;31.06
41690;BME280;27372;42.658;23.256;2023-08-31T11:05:16;93564.34;;;28.66;31.87
41690;BME280;27372;42.658;23.256;2023-08-31T11:07:52;93582.97;;;28.72;31.73
41690;BME280;27372;42.658;23.256;2023-08-31T11:12:53;93584.25;;;28.39;32.08
41690;BME280;27372;42.658;23.256;2023-08-31T11:15:21;93590.06;;;27.89;32.89
41690;BME280;27372;42.658;23.256;2023-08-31T11:17:49;93588.69;;;27.79;32.97
41690;BME280;27372;42.658;23.256;2023-08-31T11:20:19;93581.75;;;28.30;32.87
41690;BME280;27372;42.658;23.256;2023-08-31T11:22:50;93578.81;;;29.64;30.77
41690;BME280;27372;42.658;23.256;2023-08-31T11:25:16;93581.66;;;29.05;29.79
41690;BME280;27372;42.658;23.256;2023-08-31T11:28:03;93584.69;;;27.25;33.33
41690;BME280;27372;42.658;23.256;2023-08-31T11:30:37;93588.97;;;26.97;32.80
41690;BME280;27372;42.658;23.256;2023-08-31T11:33:04;93593.44;;;27.22;33.29
41690;BME280;27372;42.658;23.256;2023-08-31T11:35:35;93589.34;;;27.12;33.33
41690;BME280;27372;42.658;23.256;2023-08-31T11:38:01;93573.53;;;26.54;34.14
41690;BME280;27372;42.658;23.256;2023-08-31T11:40:27;93589.31;;;26.67;34.26
41690;BME280;27372;42.658;23.256;2023-08-31T11:42:56;93582.22;;;28.00;32.61
41690;BME280;27372;42.658;23.256;2023-08-31T11:45:23;93570.59;;;28.90;31.98
41690;BME280;27372;42.658;23.256;2023-08-31T11:47:49;93575.09;;;29.95;32.26
41690;BME280;27372;42.658;23.256;2023-08-31T11:50:20;93578.16;;;29.24;33.50
41690;BME280;27372;42.658;23.256;2023-08-31T11:52:47;93571.75;;;28.89;33.98
41690;BME280;27372;42.658;23.256;2023-08-31T11:55:33;93576.25;;;28.26;34.53
41690;BME280;27372;42.658;23.256;2023-08-31T11:57:58;93573.78;;;27.85;34.91
41690;BME280;27372;42.658;23.256;2023-08-31T12:00:24;93581.50;;;27.51;34.94
41690;BME280;27372;42.658;23.256;2023-08-31T12:03:00;93573.00;;;28.01;35.14
41690;BME280;27372;42.658;23.256;2023-08-31T12:05:26;93559.09;;;28.54;33.93
41690;BME280;27372;42.658;23.256;2023-08-31T12:07:56;93578.34;;;28.33;34.87
41690;BME280;27372;42.658;23.256;2023-08-31T12:10:24;93567.78;;;27.92;35.73
41690;BME280;27372;42.658;23.256;2023-08-31T12:12:50;93570.97;;;27.62;35.83
41690;BME280;27372;42.658;23.256;2023-08-31T12:15:18;93570.91;;;27.94;35.75
41690;BME280;27372;42.658;23.256;2023-08-31T12:17:43;93579.66;;;28.07;35.05
41690;BME280;27372;42.658;23.256;2023-08-31T12:20:11;93567.25;;;28.97;33.47
41690;BME280;27372;42.658;23.256;2023-08-31T12:22:37;93550.84;;;30.63;31.31
41690;BME280;27372;42.658;23.256;2023-08-31T12:25:03;93552.75;;;32.50;28.64
41690;BME280;27372;42.658;23.256;2023-08-31T12:27:28;93555.59;;;32.01;29.55
41690;BME280;27372;42.658;23.256;2023-08-31T12:29:58;93554.06;;;31.55;29.73
41690;BME280;27372;42.658;23.256;2023-08-31T12:32:29;93566.59;;;31.26;30.18
41690;BME280;27372;42.658;23.256;2023-08-31T12:34:55;93563.72;;;29.86;31.75
41690;BME280;27372;42.658;23.256;2023-08-31T12:37:23;93570.84;;;29.71;31.74
41690;BME280;27372;42.658;23.256;2023-08-31T12:39:54;93568.94;;;29.48;32.50
41690;BME280;27372;42.658;23.256;2023-08-31T12:42:26;93558.13;;;30.29;31.58
41690;BME280;27372;42.658;23.256;2023-08-31T12:44:51;93550.94;;;31.08;30.20
41690;BME280;27372;42.658;23.256;2023-08-31T12:47:17;93553.22;;;30.38;29.80
41690;BME280;27372;42.658;23.256;2023-08-31T12:49:42;93552.28;;;29.73;31.54
41690;BME280;27372;42.658;23.256;2023-08-31T12:52:08;93557.44;;;29.55;31.75
41690;BME280;27372;42.658;23.256;2023-08-31T12:54:33;93559.00;;;28.90;32.59
41690;BME280;27372;42.658;23.256;2023-08-31T12:56:58;93560.88;;;27.59;33.77
41690;BME280;27372;42.658;23.256;2023-08-31T12:59:24;93568.69;;;27.64;33.83
41690;BME280;27372;42.658;23.256;2023-08-31T13:01:49;93554.34;;;27.60;33.75
41690;BME280;27372;42.658;23.256;2023-08-31T13:04:15;93553.13;;;27.57;34.40
41690;BME280;27372;42.658;23.256;2023-08-31T13:06:43;93557.94;;;28.00;33.64
41690;BME280;27372;42.658;23.256;2023-08-31T13:09:09;93568.56;;;28.09;32.93
41690;BME280;27372;42.658;23.256;2023-08-31T13:11:34;93551.50;;;29.03;31.83